createdAt,value
2022-10-20T00:01:14.882Z,9.73
2022-10-20T00:03:41.347Z,6.90
2022-10-20T00:06:09.194Z,8.77
2022-10-20T00:08:35.582Z,6.95
2022-10-20T00:11:01.894Z,12.30
2022-10-20T00:13:28.243Z,9.60
2022-10-20T00:15:55.309Z,9.82
2022-10-20T00:18:22.611Z,6.90
2022-10-20T00:20:49.372Z,8.23
2022-10-20T00:23:15.762Z,6.95
2022-10-20T00:25:42.074Z,8.35
2022-10-20T00:28:08.385Z,10.68
2022-10-20T00:30:35.411Z,7.57
2022-10-20T00:33:02.871Z,7.15
2022-10-20T00:35:29.705Z,8.32
2022-10-20T00:37:56.540Z,9.13
2022-10-20T00:40:23.055Z,10.32
2022-10-20T00:42:49.392Z,6.80
2022-10-20T00:45:17.468Z,10.20
2022-10-20T00:50:25.271Z,7.32
2022-10-20T00:52:52.319Z,7.72
2022-10-20T00:55:32.103Z,6.53
2022-10-20T00:57:59.434Z,7.78
2022-10-20T01:00:25.984Z,9.63
2022-10-20T01:02:54.101Z,9.85
2022-10-20T01:05:20.786Z,12.15
2022-10-20T01:07:47.084Z,9.02
2022-10-20T01:10:14.011Z,7.30
2022-10-20T01:12:59.013Z,8.27
2022-10-20T01:15:28.497Z,6.63
2022-10-20T01:18:06.183Z,9.55
2022-10-20T01:20:45.288Z,6.60
2022-10-20T01:23:11.577Z,6.95
2022-10-20T01:25:56.872Z,7.88
2022-10-20T01:28:29.378Z,7.15
2022-10-20T01:31:00.240Z,9.13
2022-10-20T01:33:35.552Z,7.68
2022-10-20T01:36:04.591Z,10.55
2022-10-20T01:38:37.849Z,7.63
2022-10-20T01:41:04.250Z,7.88
2022-10-20T01:43:33.433Z,7.53
2022-10-20T01:46:00.074Z,11.57
2022-10-20T01:48:28.732Z,7.35
2022-10-20T01:50:55.138Z,10.43
2022-10-20T01:53:40.122Z,12.25
2022-10-20T01:56:06.635Z,9.60
2022-10-20T01:58:52.975Z,9.88
2022-10-20T02:01:28.431Z,9.55
2022-10-20T02:03:56.499Z,8.10
2022-10-20T02:06:41.573Z,11.50
2022-10-20T02:09:11.574Z,9.55
2022-10-20T02:11:58.199Z,10.73
2022-10-20T02:14:25.012Z,9.63
2022-10-20T02:16:54.865Z,14.98
2022-10-20T02:19:23.616Z,9.50
2022-10-20T02:21:51.580Z,10.88
2022-10-20T02:24:18.834Z,9.23
2022-10-20T02:26:45.495Z,11.10
2022-10-20T02:29:14.844Z,12.07
2022-10-20T02:31:41.392Z,8.85
2022-10-20T02:34:07.835Z,10.55
2022-10-20T02:36:37.373Z,12.32
2022-10-20T02:39:03.671Z,11.88
2022-10-20T02:41:31.088Z,10.32
2022-10-20T02:43:57.507Z,11.40
2022-10-20T02:49:08.356Z,15.50
2022-10-20T02:51:34.897Z,10.75
2022-10-20T02:54:01.488Z,15.70
2022-10-20T02:56:30.289Z,8.45
2022-10-20T03:01:37.724Z,11.80
2022-10-20T03:04:04.169Z,16.38
2022-10-20T03:06:30.443Z,12.65
2022-10-20T03:11:40.605Z,10.40
2022-10-20T03:14:07.028Z,11.68
2022-10-20T03:16:33.524Z,14.52
2022-10-20T03:19:03.404Z,10.77
2022-10-20T03:21:32.712Z,10.00
2022-10-20T03:23:59.057Z,10.68
2022-10-20T03:26:25.682Z,10.00
2022-10-20T03:28:52.015Z,12.57
2022-10-20T03:31:18.330Z,10.13
2022-10-20T03:33:44.754Z,13.45
2022-10-20T03:36:11.426Z,10.50
2022-10-20T03:38:37.727Z,12.63
2022-10-20T03:41:04.065Z,11.35
2022-10-20T03:43:30.427Z,13.30
2022-10-20T03:46:07.373Z,16.05
2022-10-20T03:48:33.726Z,12.63
2022-10-20T03:51:00.425Z,20.48
2022-10-20T03:53:26.880Z,14.30
2022-10-20T03:55:53.215Z,13.27
2022-10-20T03:58:19.959Z,12.15
2022-10-20T04:00:46.842Z,14.07
2022-10-20T04:03:13.375Z,18.25
2022-10-20T04:05:40.144Z,12.88
2022-10-20T04:08:06.454Z,11.27
2022-10-20T04:10:33.062Z,10.50
2022-10-20T04:13:00.267Z,10.77
2022-10-20T04:15:26.588Z,13.45
2022-10-20T04:17:53.046Z,16.33
2022-10-20T04:20:19.439Z,9.77
2022-10-20T04:22:46.181Z,11.70
2022-10-20T04:25:12.788Z,13.48
2022-10-20T04:27:59.016Z,13.27
2022-10-20T04:30:25.883Z,13.85
2022-10-20T04:32:52.285Z,11.43
2022-10-20T04:35:18.564Z,13.48
2022-10-20T04:37:44.865Z,11.85
2022-10-20T04:40:11.349Z,12.40
2022-10-20T04:42:37.682Z,10.82
2022-10-20T04:45:04.213Z,10.77
2022-10-20T04:47:34.175Z,13.18
2022-10-20T04:50:00.676Z,13.45
2022-10-20T04:52:28.276Z,12.10
2022-10-20T04:54:54.831Z,10.10
2022-10-20T04:57:21.255Z,15.50
2022-10-20T04:59:47.644Z,10.85
2022-10-20T05:02:14.296Z,14.00
2022-10-20T05:04:40.656Z,16.98
2022-10-20T05:07:06.976Z,13.07
2022-10-20T05:09:33.329Z,14.50
2022-10-20T05:11:59.907Z,15.80
2022-10-20T05:14:45.061Z,17.17
2022-10-20T05:17:11.569Z,13.57
2022-10-20T05:19:38.079Z,11.48
2022-10-20T05:22:04.395Z,13.55
2022-10-20T05:24:30.812Z,16.20
2022-10-20T05:26:57.224Z,13.30
2022-10-20T05:29:23.627Z,13.32
2022-10-20T05:31:49.946Z,14.00
2022-10-20T05:34:16.325Z,13.90
2022-10-20T05:36:42.641Z,13.43
2022-10-20T05:39:09.959Z,16.02
2022-10-20T05:41:38.861Z,12.32
2022-10-20T05:44:06.751Z,12.90
2022-10-20T05:46:34.127Z,14.95
2022-10-20T05:49:02.453Z,19.83
2022-10-20T05:51:30.488Z,13.57
2022-10-20T05:53:57.715Z,14.48
2022-10-20T05:56:24.963Z,15.95
2022-10-20T05:58:51.593Z,12.93
2022-10-20T06:01:21.351Z,13.30
2022-10-20T06:03:55.238Z,11.70
2022-10-20T06:06:22.620Z,17.15
2022-10-20T06:08:50.721Z,17.00
2022-10-20T06:11:17.878Z,18.25
2022-10-20T06:13:47.075Z,15.75
2022-10-20T06:16:18.302Z,15.43
2022-10-20T06:18:44.612Z,13.60
2022-10-20T06:21:12.552Z,16.88
2022-10-20T06:23:39.374Z,14.77
2022-10-20T06:26:08.076Z,12.70
2022-10-20T06:28:35.157Z,15.88
2022-10-20T06:31:09.552Z,15.75
2022-10-20T06:33:35.991Z,19.55
2022-10-20T06:36:02.320Z,19.27
2022-10-20T06:38:28.775Z,15.07
2022-10-20T06:40:55.329Z,15.25
2022-10-20T06:43:21.851Z,18.38
2022-10-20T06:45:58.338Z,15.85
2022-10-20T06:48:25.217Z,17.85
2022-10-20T06:50:59.069Z,19.10
2022-10-20T06:53:46.642Z,15.23
2022-10-20T06:56:19.866Z,13.32
2022-10-20T06:58:47.960Z,14.00
2022-10-20T07:01:18.471Z,23.73
2022-10-20T07:03:46.327Z,15.50
2022-10-20T07:06:13.839Z,16.02
2022-10-20T07:08:40.333Z,13.98
2022-10-20T07:11:08.035Z,15.38
2022-10-20T07:13:35.074Z,13.15
2022-10-20T07:16:01.524Z,16.65
2022-10-20T07:18:28.299Z,16.73
2022-10-20T07:21:05.263Z,16.13
2022-10-20T07:23:31.958Z,14.88
2022-10-20T07:26:02.110Z,18.73
2022-10-20T07:28:28.772Z,17.37
2022-10-20T07:30:55.125Z,13.88
2022-10-20T07:33:21.914Z,14.10
2022-10-20T07:35:48.947Z,14.02
2022-10-20T07:41:01.629Z,13.17
2022-10-20T07:43:28.276Z,13.82
2022-10-20T07:45:54.576Z,14.40
2022-10-20T07:48:20.950Z,12.18
2022-10-20T07:50:47.310Z,19.85
2022-10-20T07:53:13.962Z,17.88
2022-10-20T07:55:40.341Z,14.40
2022-10-20T07:58:06.631Z,20.23
2022-10-20T08:00:33.205Z,14.68
2022-10-20T08:02:59.632Z,14.40
2022-10-20T08:05:26.772Z,13.95
2022-10-20T08:07:53.072Z,12.68
2022-10-20T08:10:19.697Z,12.02
2022-10-20T08:12:46.044Z,13.82
2022-10-20T08:15:12.627Z,15.15
2022-10-20T08:17:57.906Z,11.52
2022-10-20T08:20:34.831Z,14.40
2022-10-20T08:23:01.294Z,16.13
2022-10-20T08:25:27.599Z,13.63
2022-10-20T08:27:53.937Z,14.60
2022-10-20T08:30:23.963Z,10.60
2022-10-20T08:32:51.696Z,15.10
2022-10-20T08:35:18.115Z,18.40
2022-10-20T08:37:44.388Z,13.80
2022-10-20T08:40:16.210Z,19.15
2022-10-20T08:42:44.953Z,13.98
2022-10-20T08:45:14.715Z,12.68
2022-10-20T08:47:41.500Z,14.23
2022-10-20T08:50:11.774Z,14.43
2022-10-20T08:52:40.116Z,12.73
2022-10-20T08:55:07.079Z,12.20
2022-10-20T08:57:36.417Z,13.05
2022-10-20T09:00:15.113Z,11.05
2022-10-20T09:02:41.427Z,12.60
2022-10-20T09:05:08.688Z,15.25
2022-10-20T09:07:36.579Z,15.70
2022-10-20T09:10:03.086Z,11.20
2022-10-20T09:12:31.133Z,19.35
2022-10-20T09:14:58.268Z,13.50
2022-10-20T09:17:24.819Z,16.42
2022-10-20T09:19:56.158Z,12.23
2022-10-20T09:22:24.739Z,12.25
2022-10-20T09:24:52.077Z,16.17
2022-10-20T09:27:23.575Z,12.20
2022-10-20T09:29:50.246Z,13.88
2022-10-20T09:32:46.190Z,15.80
2022-10-20T09:35:35.331Z,12.52
2022-10-20T09:38:03.959Z,13.80
2022-10-20T09:40:30.442Z,11.88
2022-10-20T09:43:17.031Z,18.50
2022-10-20T09:45:53.620Z,13.98
2022-10-20T09:48:27.602Z,12.25
2022-10-20T09:50:56.133Z,13.27
2022-10-20T09:56:29.344Z,13.35
2022-10-20T10:04:05.818Z,13.10
2022-10-20T10:06:37.387Z,13.85
2022-10-20T10:09:22.050Z,19.38
2022-10-20T10:12:10.417Z,11.15
2022-10-20T10:14:36.931Z,16.95
2022-10-20T10:17:03.469Z,15.77
2022-10-20T10:19:31.719Z,14.55
2022-10-20T10:24:47.095Z,14.77
2022-10-20T10:29:42.831Z,16.95
2022-10-20T10:32:16.920Z,12.38
2022-10-20T10:35:01.075Z,10.93
2022-10-20T10:37:30.873Z,22.50
2022-10-20T10:40:02.025Z,11.63
2022-10-20T10:42:42.100Z,14.48
2022-10-20T10:45:25.306Z,19.98
2022-10-20T10:48:10.556Z,14.02
2022-10-20T10:50:55.784Z,14.05
2022-10-20T10:53:34.318Z,14.85
2022-10-20T10:56:19.612Z,15.15
2022-10-20T10:58:46.293Z,14.88
2022-10-20T11:01:12.651Z,18.38
2022-10-20T11:03:48.633Z,16.90
2022-10-20T11:09:02.166Z,17.40
2022-10-20T11:11:31.562Z,20.23
2022-10-20T11:14:16.800Z,17.85
2022-10-20T11:16:55.720Z,18.52
2022-10-20T11:19:29.638Z,15.75
2022-10-20T11:22:24.365Z,18.42
2022-10-20T11:25:13.804Z,17.17
2022-10-20T11:27:40.257Z,21.08
2022-10-20T11:30:16.604Z,22.58
2022-10-20T11:33:09.188Z,19.50
2022-10-20T11:35:42.821Z,23.40
2022-10-20T11:38:31.360Z,19.70
2022-10-20T11:41:36.254Z,26.50
2022-10-20T11:44:06.053Z,19.98
2022-10-20T11:46:36.437Z,23.73
2022-10-20T11:49:04.251Z,22.55
2022-10-20T11:51:30.618Z,21.80
2022-10-20T11:54:25.991Z,22.15
2022-10-20T11:57:10.274Z,24.67
2022-10-20T11:59:43.988Z,25.27
2022-10-20T12:02:22.304Z,27.15
2022-10-20T12:05:07.545Z,27.30
2022-10-20T12:07:44.784Z,27.40
2022-10-20T12:10:14.068Z,29.90
2022-10-20T12:13:06.952Z,28.92
2022-10-20T12:15:33.336Z,38.80
2022-10-20T12:18:03.393Z,26.65
2022-10-20T12:20:29.683Z,31.42
2022-10-20T12:22:59.085Z,30.13
2022-10-20T12:25:25.381Z,32.67
2022-10-20T12:28:10.348Z,31.20
2022-10-20T12:30:39.696Z,26.75
2022-10-20T12:33:16.640Z,35.03
2022-10-20T12:36:01.893Z,28.92
2022-10-20T12:38:29.176Z,28.40
2022-10-20T12:40:57.896Z,29.52
2022-10-20T12:43:26.143Z,35.47
2022-10-20T12:45:56.787Z,34.20
2022-10-20T12:48:23.514Z,31.63
2022-10-20T12:50:50.910Z,36.95
2022-10-20T12:53:17.347Z,36.17
2022-10-20T12:55:48.072Z,30.98
2022-10-20T12:58:17.487Z,35.45
2022-10-20T13:00:46.841Z,35.42
2022-10-20T13:03:49.670Z,38.03
2022-10-20T13:06:26.860Z,33.58
2022-10-20T13:09:10.458Z,32.70
2022-10-20T13:11:40.705Z,33.75
2022-10-20T13:14:13.376Z,30.83
2022-10-20T13:16:45.771Z,32.10
2022-10-20T13:19:19.420Z,30.58
2022-10-20T13:21:49.509Z,28.50
2022-10-20T13:24:18.849Z,28.70
2022-10-20T13:26:48.005Z,27.52
2022-10-20T13:29:22.955Z,32.92
2022-10-20T13:32:03.802Z,26.52
2022-10-20T13:34:44.602Z,28.55
2022-10-20T13:37:23.744Z,34.75
2022-10-20T13:39:50.021Z,30.98
2022-10-20T13:42:32.708Z,33.08
2022-10-20T13:45:11.283Z,31.13
2022-10-20T13:47:56.614Z,28.40
2022-10-20T13:50:23.038Z,30.20
2022-10-20T13:52:54.980Z,33.60
2022-10-20T13:55:22.971Z,32.88
2022-10-20T13:57:55.543Z,30.40
2022-10-20T14:00:22.072Z,40.80
2022-10-20T14:03:05.860Z,31.52
2022-10-20T14:05:39.116Z,34.28
2022-10-20T14:08:11.775Z,36.00
2022-10-20T14:10:44.248Z,29.13
2022-10-20T14:13:13.469Z,32.65
2022-10-20T14:15:40.601Z,33.40
2022-10-20T14:18:08.005Z,35.50
2022-10-20T14:20:37.351Z,31.83
2022-10-20T14:23:05.265Z,31.45
2022-10-20T14:25:32.017Z,36.83
2022-10-20T14:27:58.849Z,33.38
2022-10-20T14:30:26.552Z,27.88
2022-10-20T14:32:53.764Z,31.35
2022-10-20T14:35:38.632Z,22.08
2022-10-20T14:38:15.313Z,29.25
2022-10-20T14:40:41.909Z,89.63
2022-10-20T14:43:19.191Z,34.45
2022-10-20T14:45:53.036Z,21.52
2022-10-20T14:48:20.223Z,20.15
2022-10-20T14:50:46.656Z,21.48
2022-10-20T14:53:17.321Z,24.10
2022-10-20T14:55:43.707Z,23.15
2022-10-20T14:58:28.888Z,21.70
2022-10-20T15:01:20.016Z,17.52
2022-10-20T15:03:46.509Z,16.33
2022-10-20T15:06:16.896Z,19.50
2022-10-20T15:08:55.204Z,17.25
2022-10-20T15:11:23.589Z,17.92
2022-10-20T15:13:51.949Z,18.20
2022-10-20T15:16:32.044Z,15.48
2022-10-20T15:19:11.696Z,15.68
2022-10-20T15:24:18.255Z,22.55
2022-10-20T15:26:44.521Z,20.42
2022-10-20T15:29:10.878Z,23.55
2022-10-20T15:34:08.878Z,21.42
2022-10-20T15:36:41.751Z,44.90
2022-10-20T15:39:09.318Z,24.75
2022-10-20T15:41:35.854Z,29.08
2022-10-20T15:44:03.727Z,24.05
2022-10-20T15:46:30.083Z,23.85
2022-10-20T15:48:56.436Z,28.08
2022-10-20T15:51:25.301Z,24.73
2022-10-20T15:53:51.928Z,27.67
2022-10-20T15:56:18.364Z,31.83
2022-10-20T15:58:44.768Z,27.17
2022-10-20T16:01:14.889Z,32.10
2022-10-20T16:03:43.237Z,31.45
2022-10-20T16:06:10.444Z,40.58
2022-10-20T16:08:36.777Z,42.95
2022-10-20T16:13:47.468Z,37.42
2022-10-20T16:16:15.838Z,31.88
2022-10-20T16:18:42.244Z,38.10
2022-10-20T16:21:08.800Z,33.45
2022-10-20T16:23:39.460Z,32.80
2022-10-20T16:26:12.045Z,38.60
2022-10-20T16:28:38.520Z,43.83
2022-10-20T16:31:05.925Z,41.63
2022-10-20T16:33:32.511Z,48.42
2022-10-20T16:36:01.240Z,56.97
2022-10-20T16:38:27.596Z,42.28
2022-10-20T16:40:58.336Z,45.72
2022-10-20T16:43:24.827Z,64.38
2022-10-20T16:45:51.295Z,41.08
2022-10-20T16:48:17.643Z,55.63
2022-10-20T16:50:43.967Z,48.08
2022-10-20T16:53:10.428Z,49.28
2022-10-20T16:55:36.868Z,52.78
2022-10-20T16:58:03.184Z,57.20
2022-10-20T17:03:16.974Z,52.08
2022-10-20T17:05:53.336Z,49.05
2022-10-20T17:08:19.856Z,59.10
2022-10-20T17:10:47.362Z,54.72
2022-10-20T17:13:13.882Z,58.53
2022-10-20T17:15:41.308Z,59.38
2022-10-20T17:18:07.802Z,60.70
2022-10-20T17:20:53.096Z,66.25
2022-10-20T17:23:19.860Z,63.05
2022-10-20T17:25:46.155Z,57.67
2022-10-20T17:28:32.861Z,63.22
2022-10-20T17:30:59.830Z,65.28
2022-10-20T17:33:27.158Z,56.58
2022-10-20T17:35:54.173Z,59.75
2022-10-20T17:38:40.621Z,55.03
2022-10-20T17:41:08.647Z,62.97
2022-10-20T17:43:35.378Z,51.20
2022-10-20T17:46:09.091Z,57.10
2022-10-20T17:48:36.061Z,57.58
2022-10-20T17:51:06.680Z,61.08
2022-10-20T17:53:35.528Z,58.42
2022-10-20T17:56:03.233Z,48.30
2022-10-20T17:58:29.677Z,54.55
2022-10-20T18:01:06.259Z,49.40
2022-10-20T18:03:32.935Z,54.70
2022-10-20T18:05:59.287Z,53.08
2022-10-20T18:08:25.591Z,48.05
2022-10-20T18:10:51.900Z,54.03
2022-10-20T18:13:19.386Z,48.05
2022-10-20T18:15:45.763Z,46.72
2022-10-20T18:18:12.040Z,44.28
2022-10-20T18:20:38.360Z,52.75
2022-10-20T18:23:04.777Z,43.38
2022-10-20T18:25:31.121Z,37.22
2022-10-20T18:27:57.485Z,42.35
2022-10-20T18:30:24.008Z,42.83
2022-10-20T18:32:50.302Z,44.28
2022-10-20T18:35:25.618Z,44.55
2022-10-20T18:37:57.468Z,50.20
2022-10-20T18:40:24.286Z,42.50
2022-10-20T18:42:50.597Z,39.30
2022-10-20T18:45:20.347Z,38.20
2022-10-20T18:47:50.205Z,39.95
2022-10-20T18:50:16.697Z,37.58
2022-10-20T18:55:27.160Z,35.65
2022-10-20T18:57:53.546Z,41.83
2022-10-20T19:00:19.954Z,46.55
2022-10-20T19:02:49.666Z,37.13
2022-10-20T19:05:16.308Z,38.35
2022-10-20T19:07:42.689Z,39.83
2022-10-20T19:10:09.092Z,42.92
2022-10-20T19:12:36.577Z,35.65
2022-10-20T19:15:03.362Z,35.58
2022-10-20T19:17:29.734Z,32.20
2022-10-20T19:19:56.047Z,34.33
2022-10-20T19:25:02.691Z,32.97
2022-10-20T19:27:29.047Z,30.10
2022-10-20T19:29:55.930Z,29.85
2022-10-20T19:32:22.489Z,32.63
2022-10-20T19:34:48.831Z,29.05
2022-10-20T19:37:15.155Z,32.55
2022-10-20T19:39:42.013Z,29.00
2022-10-20T19:42:09.122Z,28.35
2022-10-20T19:44:35.972Z,26.58
2022-10-20T19:47:03.912Z,42.65
2022-10-20T19:49:30.533Z,28.63
2022-10-20T19:51:56.888Z,28.02
2022-10-20T19:54:23.679Z,27.60
2022-10-20T19:56:49.997Z,25.55
2022-10-20T19:59:16.337Z,32.88
2022-10-20T20:01:42.708Z,29.35
2022-10-20T20:04:10.741Z,26.52
2022-10-20T20:06:37.550Z,27.88
2022-10-20T20:09:06.535Z,27.88
2022-10-20T20:11:34.537Z,28.80
2022-10-20T20:14:02.043Z,34.90
2022-10-20T20:16:29.031Z,29.90
2022-10-20T20:18:55.408Z,29.15
2022-10-20T20:21:22.977Z,38.88
2022-10-20T20:23:59.274Z,32.08
2022-10-20T20:26:27.537Z,27.45
2022-10-20T20:28:54.388Z,27.25
2022-10-20T20:31:21.390Z,26.70
2022-10-20T20:33:47.869Z,30.33
2022-10-20T20:36:14.242Z,32.45
2022-10-20T20:38:41.423Z,26.63
2022-10-20T20:41:10.850Z,27.55
2022-10-20T20:43:37.233Z,31.92
2022-10-20T20:46:07.589Z,26.90
2022-10-20T20:48:35.241Z,24.38
2022-10-20T20:51:01.540Z,24.90
2022-10-20T20:53:46.818Z,29.27
2022-10-20T20:56:14.131Z,27.80
2022-10-20T20:58:41.799Z,26.90
2022-10-20T21:01:13.096Z,25.85
2022-10-20T21:03:39.915Z,28.23
2022-10-20T21:06:10.850Z,29.40
2022-10-20T21:11:17.658Z,33.10
2022-10-20T21:13:44.460Z,24.17
2022-10-20T21:16:14.792Z,27.35
2022-10-20T21:18:42.021Z,27.83
2022-10-20T21:23:40.867Z,24.77
2022-10-20T21:26:07.824Z,26.52
2022-10-20T21:28:34.652Z,27.63
2022-10-20T21:31:03.711Z,28.27
2022-10-20T21:33:30.420Z,26.15
2022-10-20T21:36:04.255Z,28.60
2022-10-20T21:38:31.369Z,28.67
2022-10-20T21:41:01.600Z,33.58
2022-10-20T21:43:28.737Z,28.60
2022-10-20T21:45:55.148Z,27.73
2022-10-20T21:48:21.703Z,29.45
2022-10-20T21:50:48.067Z,24.98
2022-10-20T21:53:14.415Z,26.52
2022-10-20T21:55:40.704Z,30.45
2022-10-20T21:58:07.200Z,31.17
2022-10-20T22:00:33.559Z,35.40
2022-10-20T22:03:00.271Z,31.10
2022-10-20T22:05:26.802Z,25.38
2022-10-20T22:07:53.180Z,34.95
2022-10-20T22:10:19.472Z,25.50
2022-10-20T22:12:45.775Z,29.38
2022-10-20T22:15:12.105Z,25.42
2022-10-20T22:17:38.684Z,28.60
2022-10-20T22:20:05.568Z,29.80
2022-10-20T22:22:31.928Z,27.67
2022-10-20T22:24:58.387Z,27.05
2022-10-20T22:27:31.511Z,32.72
2022-10-20T22:30:08.565Z,31.45
2022-10-20T22:32:35.144Z,33.53
2022-10-20T22:35:01.702Z,30.25
2022-10-20T22:37:28.171Z,31.90
2022-10-20T22:39:54.489Z,31.50
2022-10-20T22:42:22.619Z,26.70
2022-10-20T22:44:51.301Z,34.15
2022-10-20T22:47:17.592Z,31.63
2022-10-20T22:49:43.941Z,29.90
2022-10-20T22:52:10.235Z,29.42
2022-10-20T22:54:36.730Z,30.10
2022-10-20T22:57:03.131Z,35.38
2022-10-20T22:59:30.481Z,34.65
2022-10-20T23:01:56.763Z,29.52
2022-10-20T23:04:23.095Z,27.08
2022-10-20T23:06:49.419Z,27.42
2022-10-20T23:09:15.775Z,28.73
2022-10-20T23:11:42.384Z,31.13
2022-10-20T23:14:08.739Z,32.60
2022-10-20T23:16:35.004Z,31.45
2022-10-20T23:19:01.535Z,30.52
2022-10-20T23:21:27.839Z,27.80
2022-10-20T23:23:54.550Z,27.08
2022-10-20T23:26:20.947Z,25.33
2022-10-20T23:28:48.607Z,33.80
2022-10-20T23:31:16.175Z,36.55
2022-10-20T23:36:27.937Z,31.80
2022-10-20T23:38:54.403Z,28.10
2022-10-20T23:41:21.077Z,28.00
2022-10-20T23:43:47.540Z,31.25
2022-10-20T23:46:14.055Z,27.48
2022-10-20T23:48:40.657Z,28.85
2022-10-20T23:51:07.331Z,30.75
2022-10-20T23:53:34.090Z,30.90
2022-10-20T23:56:00.394Z,29.23
2022-10-20T23:58:26.705Z,30.05
